createdAt,value
2022-10-06T00:02:25.616Z,2.57
2022-10-06T00:04:52.072Z,3.00
2022-10-06T00:07:18.549Z,3.13
2022-10-06T00:09:44.982Z,3.50
2022-10-06T00:12:11.550Z,3.30
2022-10-06T00:14:37.941Z,5.00
2022-10-06T00:17:04.556Z,2.77
2022-10-06T00:19:31.364Z,2.43
2022-10-06T00:21:58.018Z,5.87
2022-10-06T00:24:24.440Z,1.90
2022-10-06T00:26:50.897Z,2.67
2022-10-06T00:29:18.748Z,3.47
2022-10-06T00:31:45.215Z,3.70
2022-10-06T00:34:11.712Z,3.37
2022-10-06T00:36:38.198Z,7.10
2022-10-06T00:39:04.978Z,3.60
2022-10-06T00:41:31.435Z,2.63
2022-10-06T00:43:58.278Z,4.20
2022-10-06T00:46:27.859Z,4.33
2022-10-06T00:49:20.850Z,3.97
2022-10-06T00:51:49.334Z,7.97
2022-10-06T00:54:16.597Z,5.27
2022-10-06T00:56:43.257Z,3.73
2022-10-06T00:59:14.423Z,3.13
2022-10-06T01:01:44.836Z,3.20
2022-10-06T01:04:13.226Z,3.00
2022-10-06T01:06:51.857Z,2.93
2022-10-06T01:09:18.716Z,4.00
2022-10-06T01:11:47.023Z,2.30
2022-10-06T01:14:14.109Z,6.03
2022-10-06T01:16:42.714Z,4.70
2022-10-06T01:19:14.470Z,8.10
2022-10-06T01:21:44.330Z,5.73
2022-10-06T01:24:11.227Z,4.57
2022-10-06T01:26:39.641Z,6.27
2022-10-06T01:29:06.078Z,4.63
2022-10-06T01:31:32.981Z,7.70
2022-10-06T01:33:59.518Z,9.80
2022-10-06T01:36:26.328Z,5.20
2022-10-06T01:38:52.746Z,4.90
2022-10-06T01:41:19.691Z,2.70
2022-10-06T01:43:46.251Z,8.57
2022-10-06T01:46:13.042Z,5.73
2022-10-06T01:48:39.532Z,4.97
2022-10-06T01:51:06.001Z,4.60
2022-10-06T01:53:32.390Z,7.00
2022-10-06T01:55:59.851Z,6.13
2022-10-06T01:58:27.267Z,3.83
2022-10-06T02:00:54.236Z,4.90
2022-10-06T02:03:21.266Z,7.57
2022-10-06T02:05:47.679Z,10.07
2022-10-06T02:08:14.201Z,4.27
2022-10-06T02:10:40.633Z,5.83
2022-10-06T02:13:07.018Z,3.80
2022-10-06T02:15:33.485Z,4.63
2022-10-06T02:18:00.216Z,4.30
2022-10-06T02:20:26.608Z,5.00
2022-10-06T02:22:53.167Z,10.07
2022-10-06T02:25:19.743Z,6.87
2022-10-06T02:27:46.207Z,8.80
2022-10-06T02:30:14.777Z,8.77
2022-10-06T02:32:42.590Z,11.27
2022-10-06T02:35:10.242Z,5.97
2022-10-06T02:37:36.943Z,6.27
2022-10-06T02:40:03.522Z,5.57
2022-10-06T02:42:29.866Z,6.93
2022-10-06T02:44:59.266Z,7.07
2022-10-06T02:47:25.761Z,5.30
2022-10-06T02:49:52.318Z,8.93
2022-10-06T02:52:18.831Z,7.37
2022-10-06T02:54:47.025Z,10.27
2022-10-06T02:57:14.541Z,7.10
2022-10-06T02:59:41.297Z,7.47
2022-10-06T03:02:07.777Z,8.17
2022-10-06T03:04:34.248Z,10.40
2022-10-06T03:07:01.090Z,8.73
2022-10-06T03:09:27.490Z,7.13
2022-10-06T03:11:53.854Z,8.37
2022-10-06T03:14:23.598Z,7.90
2022-10-06T03:16:51.920Z,9.47
2022-10-06T03:19:18.380Z,8.57
2022-10-06T03:21:44.840Z,5.03
2022-10-06T03:24:11.336Z,7.10
2022-10-06T03:26:39.477Z,7.03
2022-10-06T03:29:11.102Z,7.10
2022-10-06T03:31:38.162Z,7.23
2022-10-06T03:34:04.923Z,7.73
2022-10-06T03:36:34.773Z,7.67
2022-10-06T03:39:01.841Z,9.80
2022-10-06T03:41:29.529Z,6.27
2022-10-06T03:43:57.130Z,10.97
2022-10-06T03:46:25.311Z,14.53
2022-10-06T03:48:52.534Z,10.70
2022-10-06T03:51:23.193Z,12.93
2022-10-06T03:53:50.574Z,8.40
2022-10-06T03:56:21.605Z,10.97
2022-10-06T03:58:55.116Z,9.70
2022-10-06T04:01:26.243Z,10.53
2022-10-06T04:03:53.737Z,10.13
2022-10-06T04:06:20.199Z,10.73
2022-10-06T04:08:47.569Z,9.40
2022-10-06T04:11:15.892Z,5.23
2022-10-06T04:13:43.454Z,9.30
2022-10-06T04:16:20.228Z,10.40
2022-10-06T04:18:49.357Z,11.10
2022-10-06T04:21:16.087Z,10.07
2022-10-06T04:23:42.863Z,7.30
2022-10-06T04:26:13.844Z,8.43
2022-10-06T04:28:41.330Z,7.97
2022-10-06T04:31:13.151Z,14.37
2022-10-06T04:33:39.689Z,8.83
2022-10-06T04:36:07.118Z,9.73
2022-10-06T04:38:34.406Z,6.23
2022-10-06T04:41:08.642Z,9.97
2022-10-06T04:43:35.595Z,6.37
2022-10-06T04:46:18.211Z,7.57
2022-10-06T04:48:52.420Z,6.27
2022-10-06T04:51:19.278Z,10.80
2022-10-06T04:53:46.271Z,10.20
2022-10-06T04:56:17.482Z,8.63
2022-10-06T04:58:48.232Z,9.50
2022-10-06T05:01:25.239Z,7.83
2022-10-06T05:03:53.667Z,7.53
2022-10-06T05:06:21.439Z,9.60
2022-10-06T05:08:49.170Z,12.33
2022-10-06T05:11:18.102Z,9.10
2022-10-06T05:13:46.240Z,11.10
2022-10-06T05:16:14.333Z,6.87
2022-10-06T05:18:41.031Z,8.40
2022-10-06T05:21:17.985Z,9.03
2022-10-06T05:23:45.044Z,9.77
2022-10-06T05:26:12.748Z,9.33
2022-10-06T05:28:39.633Z,10.77
2022-10-06T05:31:06.089Z,6.87
2022-10-06T05:33:33.803Z,9.07
2022-10-06T05:36:01.345Z,12.67
2022-10-06T05:38:28.280Z,11.53
2022-10-06T05:41:02.483Z,10.43
2022-10-06T05:43:29.104Z,13.03
2022-10-06T05:45:56.890Z,15.47
2022-10-06T05:48:23.638Z,14.17
2022-10-06T05:50:57.921Z,12.80
2022-10-06T05:53:24.378Z,12.03
2022-10-06T05:55:51.313Z,11.33
2022-10-06T05:58:18.611Z,10.00
2022-10-06T06:00:45.107Z,32.57
2022-10-06T06:03:11.524Z,28.20
2022-10-06T06:05:42.386Z,14.77
2022-10-06T06:08:10.462Z,12.67
2022-10-06T06:10:37.247Z,9.60
2022-10-06T06:13:04.531Z,12.03
2022-10-06T06:15:49.542Z,13.57
2022-10-06T06:18:16.372Z,9.30
2022-10-06T06:20:42.739Z,14.10
2022-10-06T06:23:09.656Z,12.10
2022-10-06T06:25:36.107Z,14.30
2022-10-06T06:28:02.561Z,17.13
2022-10-06T06:30:29.197Z,17.87
2022-10-06T06:33:00.552Z,17.27
2022-10-06T06:35:27.047Z,12.77
2022-10-06T06:37:53.500Z,10.47
2022-10-06T06:40:19.961Z,11.27
2022-10-06T06:42:50.298Z,15.43
2022-10-06T06:45:19.344Z,14.23
2022-10-06T06:47:48.014Z,12.13
2022-10-06T06:50:17.353Z,11.93
2022-10-06T06:52:43.940Z,13.30
2022-10-06T06:55:10.604Z,12.43
2022-10-06T06:57:37.277Z,12.63
2022-10-06T07:00:07.963Z,13.67
2022-10-06T07:02:34.530Z,12.23
2022-10-06T07:05:01.083Z,20.13
2022-10-06T07:07:27.521Z,22.03
2022-10-06T07:09:53.955Z,13.10
2022-10-06T07:12:20.355Z,14.87
2022-10-06T07:15:05.389Z,11.73
2022-10-06T07:17:50.673Z,12.33
2022-10-06T07:20:35.671Z,15.73
2022-10-06T07:23:21.587Z,14.20
2022-10-06T07:25:47.985Z,15.70
2022-10-06T07:28:17.091Z,11.73
2022-10-06T07:30:44.926Z,11.83
2022-10-06T07:33:11.571Z,18.00
2022-10-06T07:35:39.010Z,18.20
2022-10-06T07:38:08.132Z,18.03
2022-10-06T07:40:35.597Z,13.70
2022-10-06T07:43:02.714Z,14.33
2022-10-06T07:45:38.623Z,10.07
2022-10-06T07:48:06.346Z,18.73
2022-10-06T07:50:33.313Z,12.63
2022-10-06T07:53:01.753Z,13.43
2022-10-06T07:55:28.431Z,11.50
2022-10-06T07:57:54.816Z,24.53
2022-10-06T08:00:22.663Z,15.20
2022-10-06T08:02:49.722Z,14.20
2022-10-06T08:05:16.181Z,13.37
2022-10-06T08:07:42.538Z,19.10
2022-10-06T08:10:09.195Z,12.57
2022-10-06T08:12:37.882Z,12.90
2022-10-06T08:15:07.592Z,12.57
2022-10-06T08:17:37.700Z,15.40
2022-10-06T08:20:05.516Z,14.60
2022-10-06T08:22:32.092Z,12.20
2022-10-06T08:25:06.290Z,12.13
2022-10-06T08:27:34.994Z,12.13
2022-10-06T08:30:02.354Z,13.00
2022-10-06T08:32:28.832Z,14.87
2022-10-06T08:34:55.728Z,12.80
2022-10-06T08:37:24.650Z,18.87
2022-10-06T08:39:51.388Z,17.73
2022-10-06T08:42:20.684Z,16.90
2022-10-06T08:44:56.934Z,10.60
2022-10-06T08:47:24.501Z,10.07
2022-10-06T08:49:52.751Z,8.10
2022-10-06T08:52:38.687Z,11.43
2022-10-06T08:55:20.514Z,10.60
2022-10-06T08:57:47.299Z,16.80
2022-10-06T09:00:18.141Z,17.90
2022-10-06T09:02:49.008Z,13.17
2022-10-06T09:05:19.545Z,15.83
2022-10-06T09:07:54.721Z,18.87
2022-10-06T09:10:23.909Z,13.70
2022-10-06T09:13:08.033Z,13.27
2022-10-06T09:15:47.014Z,7.20
2022-10-06T09:18:56.162Z,11.87
2022-10-06T09:21:45.689Z,16.60
2022-10-06T09:24:15.405Z,14.73
2022-10-06T09:26:46.189Z,12.63
2022-10-06T09:29:13.305Z,18.67
2022-10-06T09:31:42.300Z,9.00
2022-10-06T09:34:08.731Z,7.00
2022-10-06T09:37:00.250Z,15.57
2022-10-06T09:39:32.654Z,9.30
2022-10-06T09:42:03.784Z,14.60
2022-10-06T09:44:51.059Z,11.10
2022-10-06T09:47:32.848Z,11.20
2022-10-06T09:50:21.913Z,13.17
2022-10-06T09:53:03.686Z,11.60
2022-10-06T09:55:33.794Z,14.00
2022-10-06T09:58:00.631Z,11.33
2022-10-06T10:00:31.225Z,11.97
2022-10-06T10:02:59.654Z,10.60
2022-10-06T10:05:26.757Z,10.93
2022-10-06T10:08:10.080Z,18.00
2022-10-06T10:10:39.279Z,15.47
2022-10-06T10:13:17.916Z,14.07
2022-10-06T10:15:53.854Z,11.13
2022-10-06T10:18:26.548Z,8.70
2022-10-06T10:20:56.140Z,8.87
2022-10-06T10:23:27.247Z,7.77
2022-10-06T10:26:15.396Z,11.33
2022-10-06T10:28:53.842Z,7.17
2022-10-06T10:31:23.732Z,8.73
2022-10-06T10:34:11.897Z,8.97
2022-10-06T10:36:59.201Z,12.17
2022-10-06T10:39:31.634Z,15.03
2022-10-06T10:42:03.301Z,13.97
2022-10-06T10:44:32.472Z,11.07
2022-10-06T10:47:07.804Z,10.57
2022-10-06T10:49:35.124Z,7.33
2022-10-06T10:52:07.626Z,9.10
2022-10-06T10:54:42.709Z,10.27
2022-10-06T10:57:21.894Z,13.17
2022-10-06T10:59:56.593Z,11.53
2022-10-06T11:02:23.061Z,6.90
2022-10-06T11:04:51.910Z,10.90
2022-10-06T11:07:22.244Z,9.40
2022-10-06T11:09:59.765Z,11.47
2022-10-06T11:12:34.066Z,10.77
2022-10-06T11:15:03.599Z,8.17
2022-10-06T11:17:46.877Z,10.57
2022-10-06T11:20:23.818Z,8.33
2022-10-06T11:23:18.691Z,7.63
2022-10-06T11:26:09.932Z,11.10
2022-10-06T11:28:45.439Z,7.00
2022-10-06T11:31:27.073Z,5.93
2022-10-06T11:33:54.838Z,20.23
2022-10-06T11:36:21.204Z,6.97
2022-10-06T11:38:55.309Z,9.67
2022-10-06T11:41:21.860Z,9.13
2022-10-06T11:43:51.214Z,7.63
2022-10-06T11:46:28.554Z,10.40
2022-10-06T11:49:16.300Z,14.10
2022-10-06T11:51:42.849Z,9.07
2022-10-06T11:54:29.254Z,8.10
2022-10-06T11:56:58.666Z,7.60
2022-10-06T11:59:26.856Z,7.23
2022-10-06T12:01:54.091Z,9.50
2022-10-06T12:04:24.516Z,6.47
2022-10-06T12:06:52.386Z,6.03
2022-10-06T12:09:28.627Z,8.80
2022-10-06T12:11:56.310Z,7.93
2022-10-06T12:17:38.898Z,6.77
2022-10-06T12:20:11.280Z,6.07
2022-10-06T12:22:43.857Z,8.43
2022-10-06T12:25:15.820Z,6.67
2022-10-06T12:27:58.329Z,10.30
2022-10-06T12:30:27.968Z,11.00
2022-10-06T12:32:58.501Z,13.07
2022-10-06T12:35:40.178Z,9.93
2022-10-06T12:38:26.594Z,6.07
2022-10-06T12:40:55.625Z,9.47
2022-10-06T12:43:22.536Z,7.30
2022-10-06T12:45:48.925Z,6.80
2022-10-06T12:48:21.351Z,8.27
2022-10-06T12:50:49.595Z,10.30
2022-10-06T12:53:22.921Z,9.80
2022-10-06T12:55:52.369Z,9.27
2022-10-06T12:58:29.086Z,8.30
2022-10-06T13:01:02.822Z,10.33
2022-10-06T13:03:29.602Z,8.87
2022-10-06T13:05:57.333Z,5.87
2022-10-06T13:08:28.697Z,7.40
2022-10-06T13:11:18.636Z,5.20
2022-10-06T13:13:49.151Z,9.03
2022-10-06T13:16:16.566Z,4.57
2022-10-06T13:18:43.287Z,4.83
2022-10-06T13:21:14.429Z,7.10
2022-10-06T13:23:40.979Z,6.73
2022-10-06T13:26:14.679Z,2.60
2022-10-06T13:28:43.837Z,5.90
2022-10-06T13:31:21.259Z,7.00
2022-10-06T13:33:50.795Z,7.77
2022-10-06T13:36:17.571Z,10.77
2022-10-06T13:38:44.074Z,7.50
2022-10-06T13:41:13.761Z,5.43
2022-10-06T13:43:42.409Z,5.13
2022-10-06T13:46:11.125Z,9.03
2022-10-06T13:48:42.634Z,4.77
2022-10-06T13:51:14.354Z,9.73
2022-10-06T13:53:43.893Z,5.33
2022-10-06T13:56:24.204Z,4.93
2022-10-06T13:58:50.986Z,6.33
2022-10-06T14:01:27.183Z,5.53
2022-10-06T14:04:12.275Z,4.77
2022-10-06T14:06:44.226Z,6.60
2022-10-06T14:09:12.113Z,6.27
2022-10-06T14:11:40.429Z,7.47
2022-10-06T14:14:14.540Z,10.17
2022-10-06T14:16:46.657Z,7.77
2022-10-06T14:19:28.823Z,7.63
2022-10-06T14:21:55.340Z,4.60
2022-10-06T14:24:28.498Z,5.23
2022-10-06T14:26:59.968Z,7.23
2022-10-06T14:29:26.535Z,8.07
2022-10-06T14:31:53.263Z,7.97
2022-10-06T14:34:20.360Z,5.53
2022-10-06T14:36:48.111Z,5.13
2022-10-06T14:39:15.193Z,8.20
2022-10-06T14:41:41.955Z,8.00
2022-10-06T14:44:11.358Z,5.87
2022-10-06T14:46:38.712Z,9.93
2022-10-06T14:49:06.048Z,7.70
2022-10-06T14:51:36.538Z,8.23
2022-10-06T14:54:04.893Z,6.90
2022-10-06T14:56:32.449Z,6.10
2022-10-06T14:59:04.024Z,9.30
2022-10-06T15:01:31.433Z,10.10
2022-10-06T15:03:58.985Z,5.60
2022-10-06T15:06:45.067Z,6.40
2022-10-06T15:09:11.492Z,4.40
2022-10-06T15:11:38.980Z,5.47
2022-10-06T15:14:06.084Z,6.93
2022-10-06T15:16:33.484Z,6.07
2022-10-06T15:19:00.569Z,5.67
2022-10-06T15:21:27.358Z,3.80
2022-10-06T15:24:02.098Z,4.27
2022-10-06T15:26:47.317Z,7.93
2022-10-06T15:29:14.092Z,6.20
2022-10-06T15:31:41.678Z,4.97
2022-10-06T15:34:09.524Z,5.47
2022-10-06T15:36:37.026Z,4.77
2022-10-06T15:39:04.807Z,7.57
2022-10-06T15:41:32.300Z,6.60
2022-10-06T15:43:59.007Z,8.40
2022-10-06T15:46:28.218Z,7.93
2022-10-06T15:49:00.042Z,5.77
2022-10-06T15:51:27.326Z,6.97
2022-10-06T15:53:53.713Z,8.57
2022-10-06T15:56:20.789Z,6.93
2022-10-06T15:58:48.767Z,9.77
2022-10-06T16:01:25.387Z,8.77
2022-10-06T16:03:53.224Z,6.10
2022-10-06T16:06:29.989Z,7.67
2022-10-06T16:08:56.397Z,6.27
2022-10-06T16:11:22.793Z,8.13
2022-10-06T16:13:49.243Z,3.83
2022-10-06T16:16:15.639Z,7.17
2022-10-06T16:18:42.013Z,5.37
2022-10-06T16:21:08.797Z,5.37
2022-10-06T16:23:35.167Z,4.93
2022-10-06T16:26:01.915Z,6.73
2022-10-06T16:28:28.565Z,7.00
2022-10-06T16:30:55.144Z,6.27
2022-10-06T16:33:21.544Z,5.07
2022-10-06T16:35:55.466Z,7.87
2022-10-06T16:38:22.008Z,3.77
2022-10-06T16:40:57.018Z,8.53
2022-10-06T16:43:24.449Z,15.23
2022-10-06T16:46:01.983Z,14.23
2022-10-06T16:48:33.446Z,13.23
2022-10-06T16:51:03.838Z,14.67
2022-10-06T16:53:34.100Z,14.87
2022-10-06T16:56:01.008Z,16.83
2022-10-06T16:58:27.703Z,15.43
2022-10-06T17:00:57.458Z,13.73
2022-10-06T17:03:23.885Z,12.13
2022-10-06T17:05:50.369Z,12.63
2022-10-06T17:08:16.880Z,8.97
2022-10-06T17:10:43.358Z,10.67
2022-10-06T17:13:09.769Z,9.33
2022-10-06T17:15:36.869Z,7.60
2022-10-06T17:18:03.385Z,8.53
2022-10-06T17:20:29.789Z,8.83
2022-10-06T17:22:56.659Z,8.40
2022-10-06T17:25:23.109Z,8.30
2022-10-06T17:27:49.586Z,10.67
2022-10-06T17:30:17.295Z,8.33
2022-10-06T17:32:45.133Z,7.47
2022-10-06T17:35:11.628Z,10.30
2022-10-06T17:37:40.524Z,7.40
2022-10-06T17:40:09.085Z,7.67
2022-10-06T17:42:37.020Z,7.67
2022-10-06T17:45:04.158Z,9.90
2022-10-06T17:47:30.652Z,8.67
2022-10-06T17:49:57.128Z,7.60
2022-10-06T17:52:24.488Z,9.97
2022-10-06T17:54:51.340Z,12.40
2022-10-06T17:57:19.526Z,9.67
2022-10-06T17:59:46.318Z,12.70
2022-10-06T18:02:13.688Z,9.07
2022-10-06T18:04:40.337Z,7.83
2022-10-06T18:07:08.502Z,7.20
2022-10-06T18:09:36.266Z,9.03
2022-10-06T18:12:03.281Z,6.37
2022-10-06T18:14:32.394Z,8.00
2022-10-06T18:17:00.843Z,7.53
2022-10-06T18:19:29.999Z,5.97
2022-10-06T18:22:10.714Z,7.97
2022-10-06T18:24:37.775Z,9.17
2022-10-06T18:27:06.406Z,7.80
2022-10-06T18:29:34.201Z,11.37
2022-10-06T18:37:34.943Z,11.10
2022-10-06T18:40:05.742Z,7.97
2022-10-06T18:42:32.573Z,7.20
2022-10-06T18:45:17.542Z,9.07
2022-10-06T18:48:02.397Z,7.57
2022-10-06T18:50:28.905Z,7.13
2022-10-06T18:52:56.990Z,7.53
2022-10-06T18:55:26.456Z,11.10
2022-10-06T18:57:52.980Z,7.77
2022-10-06T19:00:19.409Z,10.97
2022-10-06T19:02:48.689Z,7.67
2022-10-06T19:05:15.242Z,8.10
2022-10-06T19:07:42.023Z,9.23
2022-10-06T19:10:08.751Z,7.90
2022-10-06T19:12:35.144Z,8.93
2022-10-06T19:15:01.846Z,6.43
2022-10-06T19:17:28.741Z,6.27
2022-10-06T19:19:55.387Z,6.23
2022-10-06T19:22:24.694Z,7.70
2022-10-06T19:24:51.600Z,6.97
2022-10-06T19:27:20.754Z,8.83
2022-10-06T19:29:52.899Z,8.40
2022-10-06T19:32:20.706Z,9.83
2022-10-06T19:34:47.328Z,10.43
2022-10-06T19:37:14.010Z,8.37
2022-10-06T19:39:43.003Z,11.37
2022-10-06T19:42:28.997Z,6.90
2022-10-06T19:44:55.438Z,7.03
2022-10-06T19:47:21.874Z,7.40
2022-10-06T19:49:48.291Z,9.43
2022-10-06T19:52:14.740Z,9.00
2022-10-06T19:54:42.005Z,9.67
2022-10-06T19:57:08.903Z,8.37
2022-10-06T19:59:36.784Z,7.63
2022-10-06T20:02:03.573Z,9.70
2022-10-06T20:04:30.067Z,10.27
2022-10-06T20:07:01.694Z,6.60
2022-10-06T20:09:29.387Z,8.80
2022-10-06T20:11:55.822Z,8.93
2022-10-06T20:14:23.483Z,10.30
2022-10-06T20:16:50.992Z,10.37
2022-10-06T20:19:17.940Z,8.40
2022-10-06T20:21:44.890Z,6.17
2022-10-06T20:24:12.608Z,7.37
2022-10-06T20:26:40.189Z,10.13
2022-10-06T20:29:08.306Z,8.10
2022-10-06T20:31:36.510Z,12.60
2022-10-06T20:34:04.073Z,10.43
2022-10-06T20:36:30.987Z,9.13
2022-10-06T20:39:16.056Z,6.63
2022-10-06T20:41:42.967Z,7.53
2022-10-06T20:44:09.749Z,8.67
2022-10-06T20:46:37.388Z,12.33
2022-10-06T20:49:05.432Z,7.93
2022-10-06T20:51:32.723Z,11.63
2022-10-06T20:53:59.742Z,8.10
2022-10-06T20:56:26.514Z,6.03
2022-10-06T20:58:53.331Z,7.73
2022-10-06T21:01:20.869Z,8.60
2022-10-06T21:03:49.024Z,6.83
2022-10-06T21:06:16.820Z,10.47
2022-10-06T21:08:46.004Z,8.13
2022-10-06T21:11:13.923Z,8.97
2022-10-06T21:13:40.560Z,7.63
2022-10-06T21:16:07.807Z,7.57
2022-10-06T21:18:34.314Z,7.73
2022-10-06T21:21:07.807Z,8.67
2022-10-06T21:23:37.096Z,9.07
2022-10-06T21:26:04.202Z,8.83
2022-10-06T21:28:30.668Z,6.23
2022-10-06T21:31:00.946Z,7.20
2022-10-06T21:33:27.491Z,6.40
2022-10-06T21:36:00.479Z,8.27
2022-10-06T21:38:27.632Z,7.63
2022-10-06T21:40:54.673Z,9.13
2022-10-06T21:43:21.177Z,7.07
2022-10-06T21:45:48.236Z,8.13
2022-10-06T21:48:14.791Z,8.83
2022-10-06T21:50:41.547Z,8.37
2022-10-06T21:53:08.023Z,8.03
2022-10-06T21:55:35.593Z,8.13
2022-10-06T21:58:02.070Z,9.03
2022-10-06T22:00:28.577Z,10.13
2022-10-06T22:02:55.321Z,4.97
2022-10-06T22:05:21.956Z,9.10
2022-10-06T22:07:48.425Z,7.53
2022-10-06T22:10:15.127Z,6.00
2022-10-06T22:12:42.153Z,9.17
2022-10-06T22:15:08.798Z,6.77
2022-10-06T22:17:35.263Z,8.73
2022-10-06T22:20:01.760Z,11.17
2022-10-06T22:22:28.248Z,7.83
2022-10-06T22:24:54.721Z,9.37
2022-10-06T22:27:21.160Z,8.97
2022-10-06T22:29:47.720Z,9.80
2022-10-06T22:32:14.213Z,7.00
2022-10-06T22:34:40.721Z,8.67
2022-10-06T22:37:07.290Z,7.23
2022-10-06T22:39:34.026Z,9.07
2022-10-06T22:42:00.478Z,10.80
2022-10-06T22:44:27.257Z,9.47
2022-10-06T22:46:53.936Z,9.17
2022-10-06T22:49:20.615Z,9.73
2022-10-06T22:51:47.119Z,10.97
2022-10-06T22:54:16.728Z,12.03
2022-10-06T22:56:43.300Z,14.50
2022-10-06T22:59:09.753Z,11.43
2022-10-06T23:01:36.209Z,5.23
2022-10-06T23:04:02.688Z,7.80
2022-10-06T23:06:31.358Z,5.90
2022-10-06T23:08:58.183Z,9.20
2022-10-06T23:11:24.766Z,9.17
2022-10-06T23:13:53.049Z,8.00
2022-10-06T23:16:20.232Z,7.93
2022-10-06T23:18:47.319Z,7.90
2022-10-06T23:21:19.261Z,6.63
2022-10-06T23:23:46.317Z,6.50
2022-10-06T23:26:14.219Z,10.17
2022-10-06T23:28:41.175Z,13.07
2022-10-06T23:31:09.134Z,7.50
2022-10-06T23:33:35.934Z,5.97
2022-10-06T23:36:04.164Z,7.87
2022-10-06T23:38:30.757Z,8.67
2022-10-06T23:40:57.390Z,9.83
2022-10-06T23:43:23.975Z,9.30
2022-10-06T23:45:50.765Z,7.10
2022-10-06T23:48:17.649Z,12.43
2022-10-06T23:50:54.624Z,8.10
2022-10-06T23:53:21.047Z,12.17
2022-10-06T23:55:47.503Z,7.60
2022-10-06T23:58:14.822Z,12.03
